Time;durP1;ratioP1;P1;durP2;ratioP2;P2;SDS_P1;SDS_P2;PMS_P1;PMS_P2;Temp;Humidity;BMP_temperature;BMP_pressure;BME280_temperature;BME280_humidity;BME280_pressure;Samples;Min_cycle;Max_cycle;Signal;HPM_P1;HPM_P2
2022/12/18 00:02:12;;;;;;;33.10;13.33;;;;;;;-4.55;76.93;100627.03;6161352;23;20194;-82
2022/12/18 00:04:37;;;;;;;40.03;17.37;;;;;;;-4.52;76.53;100631.34;6161612;23;20227;-82
2022/12/18 00:07:02;;;;;;;27.83;17.60;;;;;;;-4.50;76.73;100632.22;6161414;23;20235;-81
2022/12/18 00:09:28;;;;;;;24.50;11.93;;;;;;;-4.48;76.59;100640.81;6161030;23;20522;-82
2022/12/18 00:11:54;;;;;;;24.07;14.00;;;;;;;-4.48;76.80;100636.53;6161304;23;20208;-82
2022/12/18 00:14:19;;;;;;;30.27;14.30;;;;;;;-4.45;76.77;100648.53;6155139;23;20645;-82
2022/12/18 00:16:46;;;;;;;25.20;12.67;;;;;;;-4.45;76.55;100651.97;6153965;23;20181;-82
2022/12/18 00:19:12;;;;;;;22.92;12.98;;;;;;;-4.45;77.05;100661.38;6153872;23;20192;-81
2022/12/18 00:21:37;;;;;;;32.17;15.70;;;;;;;-4.41;76.44;100652.00;6155388;23;20624;-81
2022/12/18 00:24:03;;;;;;;27.33;13.43;;;;;;;-4.40;76.86;100653.72;6158899;23;20175;-83
2022/12/18 00:26:30;;;;;;;32.70;13.30;;;;;;;-4.40;76.67;100657.16;6160636;23;20184;-82
2022/12/18 00:29:01;;;;;;;21.67;11.68;;;;;;;-4.41;76.57;100659.69;6161276;23;20178;-81
2022/12/18 00:31:29;;;;;;;29.08;12.02;;;;;;;-4.48;76.68;100653.63;6160005;23;20368;-81
2022/12/18 00:33:55;;;;;;;28.58;13.57;;;;;;;-4.52;76.75;100657.84;6160037;23;20404;-82
2022/12/18 00:36:30;;;;;;;33.60;15.50;;;;;;;-4.60;76.71;100656.00;6135157;23;20423;-82
2022/12/18 00:38:58;;;;;;;27.27;12.75;;;;;;;-4.61;77.01;100667.09;6160250;23;20194;-81
2022/12/18 00:44:11;;;;;;;32.75;16.00;;;;;;;-4.69;76.85;100674.69;6157609;23;20195;-85
2022/12/18 00:46:36;;;;;;;29.83;13.30;;;;;;;-4.68;77.14;100663.56;6158077;23;20189;-84
2022/12/18 00:49:02;;;;;;;31.97;11.87;;;;;;;-4.67;77.05;100663.63;6154349;23;20192;-82
2022/12/18 00:51:27;;;;;;;27.37;12.60;;;;;;;-4.66;76.94;100667.03;6154043;23;20183;-81
2022/12/18 00:53:53;;;;;;;30.93;13.67;;;;;;;-4.64;77.08;100665.34;6128050;23;20198;-81
2022/12/18 00:56:22;;;;;;;30.80;13.27;;;;;;;-4.67;77.19;100668.75;6155145;23;20682;-81
2022/12/18 00:58:48;;;;;;;35.35;15.48;;;;;;;-4.67;77.13;100668.75;6153439;23;20194;-83
2022/12/18 01:01:14;;;;;;;18.23;12.83;;;;;;;-4.67;76.80;100666.19;6153812;23;20174;-83
2022/12/18 01:03:39;;;;;;;18.25;10.05;;;;;;;-4.68;77.30;100672.13;6153907;23;20448;-85
2022/12/18 01:06:07;;;;;;;28.17;13.70;;;;;;;-4.71;76.78;100659.25;6152708;23;20182;-86
2022/12/18 01:08:32;;;;;;;25.38;11.45;;;;;;;-4.76;76.52;100657.47;6127396;23;20244;-82
2022/12/18 01:10:58;;;;;;;25.13;10.53;;;;;;;-4.80;76.90;100663.41;6153138;23;20559;-84
2022/12/18 01:13:24;;;;;;;38.45;13.48;;;;;;;-4.84;77.20;100667.59;6146270;23;20197;-81
2022/12/18 01:15:50;;;;;;;33.20;12.20;;;;;;;-4.86;77.28;100674.44;6127060;23;20189;-83
2022/12/18 01:18:16;;;;;;;22.55;11.63;;;;;;;-4.87;76.83;100676.94;6153642;23;20242;-81
2022/12/18 01:20:41;;;;;;;36.87;12.93;;;;;;;-4.85;77.09;100676.13;6154274;23;20204;-82
2022/12/18 01:23:07;;;;;;;26.80;12.60;;;;;;;-4.82;77.04;100683.00;6155103;23;20486;-82
2022/12/18 01:25:33;;;;;;;22.53;12.80;;;;;;;-4.78;77.06;100685.66;6152921;23;20177;-85
2022/12/18 01:27:58;;;;;;;19.27;9.73;;;;;;;-4.73;77.24;100699.38;6127691;23;20562;-85
2022/12/18 01:30:24;;;;;;;28.10;13.87;;;;;;;-4.71;76.96;100689.16;6153328;23;20222;-81
2022/12/18 01:32:51;;;;;;;20.77;11.18;;;;;;;-4.68;77.17;100678.97;6154250;23;20251;-83
2022/12/18 01:35:17;;;;;;;25.83;11.90;;;;;;;-4.65;77.06;100671.31;6153712;23;20822;-81
2022/12/18 01:37:42;;;;;;;28.57;12.60;;;;;;;-4.64;76.89;100685.88;6127151;23;20207;-81
2022/12/18 01:40:08;;;;;;;33.93;11.27;;;;;;;-4.68;76.47;100679.81;6125760;23;20760;-80
2022/12/18 01:42:34;;;;;;;26.52;12.73;;;;;;;-4.68;76.51;100686.66;6154069;23;20194;-81
2022/12/18 01:45:06;;;;;;;27.23;12.83;;;;;;;-4.69;76.97;100683.22;6148383;23;20220;-81
2022/12/18 01:47:54;;;;;;;24.55;11.88;;;;;;;-4.66;77.09;100682.41;6153847;23;20199;-81
2022/12/18 01:50:28;;;;;;;20.85;8.95;;;;;;;-4.64;76.89;100685.88;6152527;23;20217;-82
2022/12/18 01:52:56;;;;;;;21.58;11.40;;;;;;;-4.64;76.56;100687.53;6153318;23;20405;-82
2022/12/18 01:55:25;;;;;;;23.70;11.55;;;;;;;-4.68;76.21;100692.63;6152787;23;20179;-83
2022/12/18 01:57:54;;;;;;;17.58;9.13;;;;;;;-4.69;76.63;100698.59;6126180;23;20200;-82
2022/12/18 02:00:22;;;;;;;29.95;10.93;;;;;;;-4.70;76.50;100706.25;6127452;23;20199;-81
2022/12/18 02:02:50;;;;;;;21.58;8.60;;;;;;;-4.73;76.33;100703.66;6127254;23;20169;-81
2022/12/18 02:05:39;;;;;;;25.20;9.70;;;;;;;-4.76;76.42;100704.47;6127364;23;20178;-82
2022/12/18 02:08:10;;;;;;;21.00;11.23;;;;;;;-4.78;76.51;100701.03;6126997;23;20170;-81
2022/12/18 02:11:16;;;;;;;19.83;9.55;;;;;;;-4.78;76.81;100688.22;6127414;23;20214;-83
2022/12/18 02:13:50;;;;;;;19.13;10.52;;;;;;;-4.73;77.03;100703.66;6126925;23;20170;-81
2022/12/18 02:16:28;;;;;;;20.33;8.60;;;;;;;-4.72;76.50;100713.94;6126460;23;20168;-85
2022/12/18 02:18:58;;;;;;;17.70;9.38;;;;;;;-4.80;76.58;100720.63;6127239;23;20208;-83
2022/12/18 02:21:47;;;;;;;24.20;11.30;;;;;;;-4.82;76.42;100713.75;6154909;23;20245;-85
2022/12/18 02:24:35;;;;;;;27.85;11.00;;;;;;;-4.85;76.82;100722.25;6128315;23;20518;-82
2022/12/18 02:27:05;;;;;;;14.90;9.73;;;;;;;-4.84;76.62;100723.97;6127924;23;20186;-82
2022/12/18 02:29:38;;;;;;;13.93;5.60;;;;;;;-4.78;76.63;100711.28;6145784;23;20447;-83
2022/12/18 02:32:11;;;;;;;22.60;11.18;;;;;;;-4.71;76.67;100704.53;6128113;23;20237;-81
2022/12/18 02:34:39;;;;;;;18.00;9.25;;;;;;;-4.67;76.92;100699.50;6128422;23;20419;-81
2022/12/18 02:37:12;;;;;;;26.38;9.73;;;;;;;-4.65;76.18;100696.94;6128282;23;20266;-81
2022/12/18 02:39:41;;;;;;;18.73;8.15;;;;;;;-4.66;76.12;100700.34;6128189;23;20215;-81
2022/12/18 02:42:09;;;;;;;19.20;9.48;;;;;;;-4.67;76.19;100703.78;6129871;23;20214;-81
2022/12/18 02:44:43;;;;;;;21.67;9.57;;;;;;;-4.72;76.33;100701.13;6152734;23;20174;-82
2022/12/18 02:47:12;;;;;;;20.00;8.55;;;;;;;-4.76;76.15;100699.34;6153844;23;20256;-84
2022/12/18 02:49:59;;;;;;;22.80;10.48;;;;;;;-4.83;75.72;100697.53;6127937;23;20210;-81
2022/12/18 02:52:38;;;;;;;15.55;7.78;;;;;;;-4.91;76.54;100705.09;6130190;23;20246;-81
2022/12/18 02:55:12;;;;;;;23.52;11.02;;;;;;;-4.93;76.53;100709.31;6129720;23;20178;-81
2022/12/18 02:57:48;;;;;;;23.15;10.50;;;;;;;-4.95;76.14;100705.84;6130658;23;20207;-81
2022/12/18 03:00:29;;;;;;;19.73;10.90;;;;;;;-4.94;76.48;100688.78;6130137;23;20193;-81
2022/12/18 03:02:54;;;;;;;16.42;8.68;;;;;;;-4.95;76.85;100695.59;6156443;23;20673;-81
2022/12/18 03:05:27;;;;;;;36.33;20.63;;;;;;;-4.94;76.20;100699.91;6156094;23;20434;-81
2022/12/18 03:07:58;;;;;;;32.58;14.15;;;;;;;-4.94;76.74;100701.59;6111748;23;20218;-85
2022/12/18 03:10:31;;;;;;;37.30;12.98;;;;;;;-4.95;77.05;100702.44;6131124;23;20208;-83
2022/12/18 03:13:05;;;;;;;29.63;13.20;;;;;;;-5.00;76.43;100701.50;6130880;23;20179;-84
2022/12/18 03:15:46;;;;;;;33.72;15.00;;;;;;;-5.15;76.46;100697.84;6155551;23;20175;-81
2022/12/18 03:18:18;;;;;;;27.55;11.38;;;;;;;-5.20;76.30;100701.16;6131259;23;20202;-84
2022/12/18 03:20:47;;;;;;;32.67;11.93;;;;;;;-5.17;76.64;100698.66;6130433;23;20266;-82
2022/12/18 03:23:21;;;;;;;31.60;13.60;;;;;;;-5.12;77.20;100699.59;6155968;23;20190;-83
2022/12/18 03:25:52;;;;;;;28.10;14.27;;;;;;;-5.06;77.01;100701.41;6131982;23;20269;-81
2022/12/18 03:28:21;;;;;;;18.90;12.35;;;;;;;-5.08;76.53;100708.19;6132452;23;20241;-81
2022/12/18 03:30:56;;;;;;;29.23;13.40;;;;;;;-5.08;76.21;100705.63;6129987;23;20570;-84
2022/12/18 03:33:27;;;;;;;25.67;11.73;;;;;;;-5.08;76.75;100703.91;6131349;23;20212;-85
2022/12/18 03:35:54;;;;;;;25.05;13.98;;;;;;;-5.13;76.58;100703.88;6131435;23;20192;-81
2022/12/18 03:38:20;;;;;;;19.50;11.23;;;;;;;-5.18;76.38;100708.03;6130964;23;20253;-81
2022/12/18 03:41:10;;;;;;;27.08;12.75;;;;;;;-5.23;76.24;100699.41;6130635;23;20486;-81
2022/12/18 03:44:02;;;;;;;35.15;11.95;;;;;;;-5.30;76.77;100699.25;6131121;23;20191;-81
2022/12/18 03:46:52;;;;;;;27.92;11.85;;;;;;;-5.37;76.38;100696.59;6130429;23;20181;-81
2022/12/18 03:49:17;;;;;;;16.48;11.15;;;;;;;-5.38;77.15;100711.91;6130660;23;20199;-84
2022/12/18 03:51:52;;;;;;;22.23;10.02;;;;;;;-5.37;76.78;100711.09;6158124;23;20189;-81
2022/12/18 03:54:19;;;;;;;24.38;14.77;;;;;;;-5.37;77.04;100706.84;6131841;23;20177;-85
2022/12/18 03:56:59;;;;;;;31.23;13.73;;;;;;;-5.31;76.95;100716.34;6129067;23;20218;-81
2022/12/18 03:59:28;;;;;;;34.70;13.55;;;;;;;-5.27;76.73;100710.41;6129653;23;20210;-83
2022/12/18 04:01:58;;;;;;;33.35;13.43;;;;;;;-5.23;76.67;100709.66;6129975;23;20636;-84
2022/12/18 04:04:27;;;;;;;28.05;11.75;;;;;;;-5.19;76.66;100703.72;6129021;23;20175;-83
2022/12/18 04:06:53;;;;;;;11.15;6.90;;;;;;;-5.14;76.46;100708.94;6130127;23;20202;-81
2022/12/18 04:09:20;;;;;;;22.05;11.45;;;;;;;-5.18;76.60;100702.91;6130425;23;20198;-84
2022/12/18 04:11:47;;;;;;;23.83;11.43;;;;;;;-5.18;76.18;100704.63;6130526;23;20183;-83
2022/12/18 04:14:14;;;;;;;10.70;6.88;;;;;;;-5.18;76.64;100708.03;6130577;23;20222;-82
2022/12/18 04:16:40;;;;;;;25.38;11.88;;;;;;;-5.21;76.01;100702.88;6128712;23;20183;-83
2022/12/18 04:19:09;;;;;;;25.52;8.98;;;;;;;-5.20;76.50;100701.16;6129970;23;20230;-81
2022/12/18 04:21:38;;;;;;;23.63;10.35;;;;;;;-5.21;76.57;100704.53;6155577;23;20231;-84
2022/12/18 04:24:04;;;;;;;31.77;11.43;;;;;;;-5.24;76.20;100701.91;6130083;23;20187;-86
2022/12/18 04:26:32;;;;;;;22.67;10.95;;;;;;;-5.24;76.07;100700.25;6132543;23;20183;-81
2022/12/18 04:29:12;;;;;;;19.73;8.35;;;;;;;-5.32;75.94;100695.81;6130882;23;20456;-81
2022/12/18 04:31:38;;;;;;;15.87;9.30;;;;;;;-5.37;76.09;100699.16;6130126;23;20175;-81
2022/12/18 04:34:04;;;;;;;29.47;14.53;;;;;;;-5.34;76.47;100701.78;6129040;23;20179;-82
2022/12/18 04:36:35;;;;;;;22.30;13.88;;;;;;;-5.27;76.63;100702.72;6129551;23;20651;-83
2022/12/18 04:39:01;;;;;;;23.27;8.50;;;;;;;-5.28;75.94;100690.78;6128997;23;20238;-81
2022/12/18 04:41:26;;;;;;;22.30;12.33;;;;;;;-5.35;75.90;100699.16;6129004;23;20187;-85
2022/12/18 04:43:53;;;;;;;27.95;12.93;;;;;;;-5.40;76.05;100698.22;6128464;23;20174;-85
2022/12/18 04:46:18;;;;;;;36.77;13.70;;;;;;;-5.42;76.11;100697.34;6153593;23;20187;-81
2022/12/18 04:48:46;;;;;;;32.07;14.77;;;;;;;-5.39;76.41;100694.84;6154004;23;20175;-81
2022/12/18 04:51:11;;;;;;;30.95;15.55;;;;;;;-5.48;75.67;100707.44;6155524;23;20179;-82
2022/12/18 04:53:38;;;;;;;17.02;11.52;;;;;;;-5.58;75.49;100709.84;6156650;23;20179;-83
2022/12/18 04:56:05;;;;;;;21.03;13.73;;;;;;;-5.63;75.65;100708.88;6157749;23;20640;-82
2022/12/18 04:58:30;;;;;;;29.27;13.35;;;;;;;-5.70;76.13;100701.91;6140373;23;20237;-81
2022/12/18 05:00:56;;;;;;;21.90;10.20;;;;;;;-5.71;76.56;100689.97;6155842;23;20206;-83
2022/12/18 05:03:21;;;;;;;20.27;11.07;;;;;;;-5.67;76.78;100686.66;6156897;23;20181;-84
2022/12/18 05:05:50;;;;;;;30.17;13.73;;;;;;;-5.67;76.76;100702.00;6156500;23;20460;-85
2022/12/18 05:08:15;;;;;;;25.67;11.75;;;;;;;-5.66;76.57;100685.81;6157573;23;20182;-81
2022/12/18 05:10:41;;;;;;;25.83;11.83;;;;;;;-5.63;76.29;100692.69;6148718;23;20241;-81
2022/12/18 05:13:06;;;;;;;18.80;12.67;;;;;;;-5.63;76.27;100700.34;6123552;23;20187;-81
2022/12/18 05:15:33;;;;;;;32.07;12.57;;;;;;;-5.65;76.68;100692.63;6155485;23;20182;-82
2022/12/18 05:17:59;;;;;;;28.25;15.23;;;;;;;-5.68;76.12;100690.03;6153889;23;20580;-82
2022/12/18 05:20:26;;;;;;;30.88;13.88;;;;;;;-5.73;76.78;100689.06;6153459;23;20194;-81
2022/12/18 05:22:51;;;;;;;18.23;8.23;;;;;;;-5.74;76.48;100695.03;6155177;23;20181;-85
2022/12/18 05:25:17;;;;;;;26.47;11.90;;;;;;;-5.74;76.52;100695.03;6153874;23;20464;-85
2022/12/18 05:27:42;;;;;;;25.33;10.60;;;;;;;-5.70;76.93;100690.81;6151652;23;20750;-83
2022/12/18 05:30:09;;;;;;;21.17;10.50;;;;;;;-5.64;76.74;100696.94;6151162;23;20207;-81
2022/12/18 05:32:34;;;;;;;25.58;14.00;;;;;;;-5.61;76.36;100691.03;6152433;23;20189;-81
2022/12/18 05:35:00;;;;;;;24.20;10.83;;;;;;;-5.57;76.97;100685.97;6155127;23;20254;-81
2022/12/18 05:37:25;;;;;;;22.97;10.77;;;;;;;-5.51;76.30;100681.78;6152701;23;20185;-81
2022/12/18 05:39:51;;;;;;;35.00;14.07;;;;;;;-5.44;76.38;100689.63;6150912;23;20288;-81
2022/12/18 05:42:16;;;;;;;20.50;10.33;;;;;;;-5.41;76.54;100689.69;6148219;23;20179;-81
2022/12/18 05:44:43;;;;;;;30.37;14.83;;;;;;;-5.43;75.67;100690.47;6148303;23;20495;-82
2022/12/18 05:47:08;;;;;;;24.90;12.15;;;;;;;-5.45;75.91;100681.94;6148242;23;20507;-84
2022/12/18 05:49:34;;;;;;;25.43;12.70;;;;;;;-5.49;75.59;100680.13;6147609;23;20712;-85
2022/12/18 05:51:59;;;;;;;23.97;12.47;;;;;;;-5.54;75.75;100703.09;6148521;23;20362;-84
2022/12/18 05:54:27;;;;;;;21.47;10.00;;;;;;;-5.56;76.21;100695.38;6147876;23;20648;-82
2022/12/18 05:56:52;;;;;;;21.63;12.55;;;;;;;-5.53;76.00;100704.81;6148083;23;20273;-81
2022/12/18 05:59:18;;;;;;;31.50;14.63;;;;;;;-5.51;76.30;100703.13;6147629;23;20218;-82
2022/12/18 06:01:43;;;;;;;23.03;8.53;;;;;;;-5.49;75.88;100700.63;6152390;23;20174;-82
2022/12/18 06:04:08;;;;;;;10.93;7.50;;;;;;;-5.53;75.59;100703.97;6157617;23;20182;-83
2022/12/18 06:06:34;;;;;;;19.93;10.33;;;;;;;-5.58;75.52;100707.28;6157483;23;20221;-81
2022/12/18 06:09:01;;;;;;;18.43;12.47;;;;;;;-5.58;75.57;100706.44;6157301;23;20167;-82
2022/12/18 06:11:26;;;;;;;29.75;11.70;;;;;;;-5.59;76.00;100709.81;6154740;23;20175;-82
2022/12/18 06:13:53;;;;;;;24.67;12.03;;;;;;;-5.59;75.71;100714.91;6154576;23;20762;-85
2022/12/18 06:16:19;;;;;;;24.17;11.55;;;;;;;-5.59;75.53;100726.06;6156112;23;20178;-82
2022/12/18 06:18:44;;;;;;;23.03;9.67;;;;;;;-5.66;75.55;100724.19;6155606;23;20206;-83
2022/12/18 06:21:10;;;;;;;17.93;11.10;;;;;;;-5.69;76.02;100729.25;6158154;23;20174;-81
2022/12/18 06:23:36;;;;;;;16.97;10.67;;;;;;;-5.67;75.71;100732.72;6159271;23;20202;-82
2022/12/18 06:26:07;;;;;;;26.97;14.30;;;;;;;-5.67;75.54;100745.50;6161102;23;20464;-82
2022/12/18 06:28:33;;;;;;;17.90;11.00;;;;;;;-5.67;75.81;100747.19;6162662;23;20402;-85
2022/12/18 06:30:58;;;;;;;12.37;6.30;;;;;;;-5.71;75.28;100748.81;6159935;23;20201;-85
2022/12/18 06:33:27;;;;;;;20.13;9.20;;;;;;;-5.81;74.88;100755.44;6157372;23;20183;-84
2022/12/18 06:35:53;;;;;;;10.77;7.32;;;;;;;-5.96;74.73;100760.28;6086079;23;20212;-83
2022/12/18 06:38:19;;;;;;;14.80;8.23;;;;;;;-6.05;75.05;100755.81;6127127;23;20310;-82
2022/12/18 06:40:44;;;;;;;11.50;7.40;;;;;;;-6.08;75.23;100750.63;6085547;23;20475;-83
2022/12/18 06:43:09;;;;;;;21.20;9.93;;;;;;;-6.10;75.41;100762.53;6064248;23;20181;-83
2022/12/18 06:45:35;;;;;;;18.17;8.17;;;;;;;-6.05;75.57;100768.63;6064916;23;20184;-83
2022/12/18 06:48:01;;;;;;;13.57;10.60;;;;;;;-6.03;75.54;100774.59;6064677;23;20184;-83
2022/12/18 06:50:26;;;;;;;16.30;9.37;;;;;;;-5.98;75.29;100764.47;6064728;23;20196;-84
2022/12/18 06:52:52;;;;;;;21.30;10.03;;;;;;;-5.95;75.32;100767.09;6064344;23;20464;-83
2022/12/18 06:55:17;;;;;;;19.93;10.20;;;;;;;-5.97;74.99;100766.19;6064734;23;20529;-83
2022/12/18 06:57:43;;;;;;;21.50;9.20;;;;;;;-5.96;75.34;100774.75;6064761;23;20200;-83
2022/12/18 07:00:08;;;;;;;13.70;6.87;;;;;;;-5.96;75.23;100775.63;6065149;23;20199;-83
2022/12/18 07:02:34;;;;;;;20.17;12.50;;;;;;;-5.99;75.36;100772.13;6054643;23;20241;-83
2022/12/18 07:05:00;;;;;;;45.97;20.30;;;;;;;-6.01;74.98;100777.22;6055286;23;20508;-83
2022/12/18 07:07:25;;;;;;;25.97;12.97;;;;;;;-6.09;75.39;100768.50;6055687;23;20504;-83
2022/12/18 07:09:51;;;;;;;26.40;13.17;;;;;;;-6.10;75.55;100767.66;6066331;23;20752;-85
2022/12/18 07:12:16;;;;;;;22.17;10.77;;;;;;;-6.07;75.84;100766.84;6087511;23;20578;-84
2022/12/18 07:14:42;;;;;;;27.00;12.23;;;;;;;-6.07;75.78;100775.38;6093282;23;20172;-83
2022/12/18 07:17:07;;;;;;;42.50;13.07;;;;;;;-6.05;75.83;100776.28;6093272;23;20187;-84
2022/12/18 07:19:33;;;;;;;32.07;13.90;;;;;;;-5.99;76.26;100774.66;6093742;23;20197;-83
2022/12/18 07:21:58;;;;;;;26.80;13.33;;;;;;;-5.95;75.52;100777.34;6093646;23;20356;-83
2022/12/18 07:24:24;;;;;;;27.10;13.07;;;;;;;-5.90;75.30;100779.97;6097241;23;20165;-83
2022/12/18 07:26:49;;;;;;;24.60;11.90;;;;;;;-5.92;75.51;100787.59;6095846;23;20226;-83
2022/12/18 07:29:15;;;;;;;26.20;13.27;;;;;;;-5.91;75.82;100783.34;6090968;23;20250;-83
2022/12/18 07:31:40;;;;;;;34.73;14.63;;;;;;;-5.90;75.82;100791.06;6090920;23;20179;-83
2022/12/18 07:34:11;;;;;;;29.40;10.77;;;;;;;-5.86;75.49;100798.00;6090405;23;20167;-83
2022/12/18 07:36:36;;;;;;;28.23;10.82;;;;;;;-5.86;75.34;100800.56;6088921;23;20175;-83
2022/12/18 07:39:02;;;;;;;23.63;11.90;;;;;;;-5.87;75.44;100814.16;6089680;23;20204;-83
2022/12/18 07:41:28;;;;;;;34.63;13.07;;;;;;;-5.86;75.45;100812.47;6077345;23;1102252;-83
2022/12/18 07:43:53;;;;;;;28.83;10.00;;;;;;;-5.91;74.78;100819.16;6126033;23;20180;-83
2022/12/18 07:46:19;;;;;;;28.27;13.67;;;;;;;-5.98;75.04;100815.66;6125713;23;20383;-82
2022/12/18 07:48:45;;;;;;;28.50;12.80;;;;;;;-6.06;75.14;100809.50;6125370;23;20178;-83
2022/12/18 07:51:10;;;;;;;20.30;10.65;;;;;;;-6.11;75.07;100814.50;6123649;23;20221;-83
2022/12/18 07:53:36;;;;;;;20.80;9.37;;;;;;;-6.13;75.54;100830.63;6125180;23;20227;-81
2022/12/18 07:56:06;;;;;;;19.73;9.97;;;;;;;-6.12;75.70;100829.81;6099373;23;20627;-81
2022/12/18 07:58:32;;;;;;;21.25;8.40;;;;;;;-6.11;75.53;100839.22;6098865;23;20444;-83
2022/12/18 08:01:06;;;;;;;20.20;9.85;;;;;;;-6.13;75.39;100844.31;6124975;23;20203;-81
2022/12/18 08:03:32;;;;;;;20.20;12.97;;;;;;;-6.14;75.50;100846.81;6124912;23;20401;-81
2022/12/18 08:06:02;;;;;;;24.90;13.43;;;;;;;-6.17;75.40;100857.84;6124422;23;20897;-82
2022/12/18 08:08:28;;;;;;;22.63;11.55;;;;;;;-6.16;75.48;100846.75;6098729;23;20431;-82
2022/12/18 08:10:54;;;;;;;20.85;10.20;;;;;;;-6.09;75.73;100842.66;6125176;23;20465;-82
2022/12/18 08:13:20;;;;;;;18.93;10.57;;;;;;;-5.98;75.61;100832.69;6125312;23;20627;-82
2022/12/18 08:15:45;;;;;;;24.87;8.63;;;;;;;-5.90;75.07;100834.56;6101642;23;20425;-82
2022/12/18 08:18:10;;;;;;;24.40;9.07;;;;;;;-5.87;74.61;100833.75;6124370;23;20208;-82
2022/12/18 08:20:36;;;;;;;21.07;9.40;;;;;;;-5.96;73.65;100838.72;6097862;23;20199;-82
2022/12/18 08:23:01;;;;;;;26.70;10.70;;;;;;;-5.99;74.30;100841.19;6125202;23;20242;-82
2022/12/18 08:25:26;;;;;;;13.43;8.93;;;;;;;-5.93;73.92;100841.34;6124744;23;20254;-82
2022/12/18 08:27:52;;;;;;;28.47;12.33;;;;;;;-5.86;74.43;100838.94;6124938;23;20176;-82
2022/12/18 08:30:17;;;;;;;20.73;11.33;;;;;;;-5.78;73.35;100828.84;6122939;23;20533;-82
2022/12/18 08:32:43;;;;;;;16.20;10.20;;;;;;;-5.75;73.20;100828.03;6123857;23;20175;-82
2022/12/18 08:35:09;;;;;;;25.93;11.73;;;;;;;-5.76;72.64;100823.78;6124938;23;20194;-82
2022/12/18 08:37:34;;;;;;;19.53;9.53;;;;;;;-5.80;72.50;100810.91;6126626;23;20403;-82
2022/12/18 08:40:00;;;;;;;15.30;9.10;;;;;;;-5.81;72.88;100805.75;6098088;23;20682;-82
2022/12/18 08:45:09;;;;;;;17.00;9.63;;;;;;;-5.95;71.69;100797.81;6126638;23;20181;-82
2022/12/18 08:47:35;;;;;;;24.90;9.73;;;;;;;-6.01;71.58;100802.78;6134546;23;20179;-82
2022/12/18 08:50:00;;;;;;;15.07;8.73;;;;;;;-6.02;71.92;100795.97;6132642;23;20555;-82
2022/12/18 08:52:26;;;;;;;15.57;9.13;;;;;;;-5.90;72.69;100791.06;6134226;23;20190;-82
2022/12/18 08:54:51;;;;;;;17.73;10.27;;;;;;;-5.45;72.60;100779.22;6133730;23;20184;-82
2022/12/18 08:57:16;;;;;;;15.77;8.47;;;;;;;-4.70;70.39;100784.03;6107926;23;20183;-82
2022/12/18 08:59:42;;;;;;;22.00;8.73;;;;;;;-3.84;68.70;100777.66;6133684;23;20198;-82
2022/12/18 09:02:10;;;;;;;17.23;9.87;;;;;;;-2.86;66.82;100779.66;6122021;23;20178;-83
2022/12/18 09:04:36;;;;;;;26.25;14.85;;;;;;;-1.87;64.96;100774.41;6120301;23;20425;-82
2022/12/18 09:07:01;;;;;;;22.87;10.40;;;;;;;-1.20;63.23;100771.28;6120413;23;20586;-82
2022/12/18 09:09:27;;;;;;;19.30;10.60;;;;;;;-0.81;62.21;100764.50;6121301;23;20178;-82
2022/12/18 09:11:52;;;;;;;17.77;11.70;;;;;;;-0.34;60.59;100759.34;6123876;23;20183;-82
2022/12/18 09:14:18;;;;;;;21.67;10.23;;;;;;;0.05;59.42;100757.56;6123465;23;20181;-83
2022/12/18 09:16:43;;;;;;;19.77;10.77;;;;;;;0.05;58.33;100757.56;6123485;23;20211;-83
2022/12/18 09:19:10;;;;;;;18.00;8.80;;;;;;;-0.47;58.34;100762.81;6121572;23;20221;-83
2022/12/18 09:21:35;;;;;;;27.00;17.15;;;;;;;-1.07;59.51;100767.88;6119716;23;20201;-83
2022/12/18 09:24:01;;;;;;;27.63;13.50;;;;;;;-1.66;60.37;100764.25;6120506;23;20203;-83
2022/12/18 09:26:27;;;;;;;33.40;14.47;;;;;;;-2.18;60.12;100778.53;6119826;23;20256;-82
2022/12/18 09:28:53;;;;;;;23.20;13.55;;;;;;;-2.62;61.02;100779.91;6120356;23;20171;-83
2022/12/18 09:31:21;;;;;;;16.60;11.85;;;;;;;-2.99;61.69;100783.81;6120325;23;20233;-83
2022/12/18 09:33:46;;;;;;;24.40;14.40;;;;;;;-3.32;62.45;100787.75;6120129;23;21668;-83
2022/12/18 09:36:14;;;;;;;20.90;9.73;;;;;;;-3.41;62.82;100788.47;6120177;23;20179;-83
2022/12/18 09:38:40;;;;;;;18.67;14.15;;;;;;;-3.57;62.90;100796.84;6119841;23;20195;-82
2022/12/18 09:41:24;;;;;;;28.77;14.63;;;;;;;-3.75;62.91;100804.28;6093866;23;20306;-83
2022/12/18 09:43:53;;;;;;;22.02;12.40;;;;;;;-3.94;63.67;100804.06;6120190;23;20190;-82
2022/12/18 09:46:28;;;;;;;19.15;11.05;;;;;;;-4.01;64.00;100815.91;6122279;23;20179;-82
2022/12/18 09:49:00;;;;;;;25.83;11.50;;;;;;;-4.10;63.78;100813.22;6121085;23;20241;-82
2022/12/18 09:51:36;;;;;;;28.35;12.40;;;;;;;-4.19;64.19;100814.78;6120557;23;20286;-82
2022/12/18 09:54:11;;;;;;;19.02;10.60;;;;;;;-4.16;64.22;100807.97;6119977;23;20507;-82
2022/12/18 09:56:42;;;;;;;21.38;10.20;;;;;;;-4.16;64.23;100807.97;6120542;23;20252;-83
2022/12/18 09:59:20;;;;;;;20.08;10.93;;;;;;;-4.17;64.31;100806.25;6120088;23;20538;-82
2022/12/18 10:01:45;;;;;;;15.55;9.95;;;;;;;-4.12;64.66;100812.31;6120090;23;20171;-82
2022/12/18 10:04:10;;;;;;;15.90;10.73;;;;;;;-4.00;64.34;100803.94;6134747;23;20229;-82
2022/12/18 10:06:46;;;;;;;24.37;12.60;;;;;;;-4.04;64.31;100805.59;6137023;23;20197;-82
2022/12/18 10:09:33;;;;;;;26.17;13.90;;;;;;;-4.14;64.75;100800.31;6138069;23;20186;-82
2022/12/18 10:12:08;;;;;;;35.72;13.98;;;;;;;-4.23;65.64;100801.91;6140873;23;20248;-82
2022/12/18 10:15:08;;;;;;;24.58;12.43;;;;;;;-4.39;65.64;100801.63;6137125;23;20183;-82
2022/12/18 10:17:33;;;;;;;20.70;10.57;;;;;;;-4.49;66.19;100790.34;6113298;23;20598;-82
2022/12/18 10:20:15;;;;;;;23.20;12.70;;;;;;;-4.55;66.29;100791.13;6136387;23;20228;-82
2022/12/18 10:22:50;;;;;;;22.50;13.57;;;;;;;-4.60;67.04;100773.94;6136496;23;20182;-82
2022/12/18 10:25:25;;;;;;;20.52;13.25;;;;;;;-4.56;66.67;100774.03;6136772;23;20615;-82
2022/12/18 10:27:55;;;;;;;30.42;14.10;;;;;;;-4.51;67.17;100767.28;6137700;23;20178;-82
2022/12/18 10:30:23;;;;;;;20.17;10.18;;;;;;;-4.51;67.04;100766.38;6142811;23;20187;-82
2022/12/18 10:32:48;;;;;;;23.92;14.57;;;;;;;-4.52;67.90;100772.34;6142909;23;20453;-82
2022/12/18 10:35:26;;;;;;;42.73;24.17;;;;;;;-4.48;68.42;100761.31;6135974;23;20398;-82
2022/12/18 10:38:17;;;;;;;39.20;16.20;;;;;;;-4.33;68.77;100758.13;6135364;23;20293;-82
2022/12/18 10:40:56;;;;;;;27.13;14.23;;;;;;;-4.21;68.30;100745.50;6134650;23;20215;-82
2022/12/18 10:43:27;;;;;;;21.20;12.27;;;;;;;-4.08;67.96;100751.66;6135574;23;20187;-82
2022/12/18 10:46:08;;;;;;;24.45;13.85;;;;;;;-3.93;67.65;100753.56;6135744;23;20215;-82
2022/12/18 10:48:39;;;;;;;26.58;14.73;;;;;;;-3.85;67.64;100757.97;6136127;23;20186;-82
2022/12/18 10:51:06;;;;;;;23.77;11.00;;;;;;;-3.76;67.67;100752.09;6135311;23;20420;-82
2022/12/18 10:53:35;;;;;;;16.02;11.93;;;;;;;-3.65;67.34;100741.94;6134724;23;20170;-80
2022/12/18 10:56:01;;;;;;;16.83;11.20;;;;;;;-3.57;66.90;100742.91;6135722;23;20210;-82
2022/12/18 10:58:34;;;;;;;23.55;13.35;;;;;;;-3.49;67.10;100738.72;6135302;23;20221;-82
2022/12/18 11:01:15;;;;;;;20.23;10.68;;;;;;;-3.42;66.87;100729.41;6134992;23;20290;-82
2022/12/18 11:03:46;;;;;;;14.55;10.57;;;;;;;-3.41;66.73;100719.13;6134813;23;20179;-82
2022/12/18 11:06:12;;;;;;;20.02;11.48;;;;;;;-3.34;66.69;100712.34;6135311;23;20237;-82
2022/12/18 11:08:38;;;;;;;18.15;10.27;;;;;;;-3.26;66.97;100727.88;6135173;23;20177;-82
2022/12/18 11:11:14;;;;;;;17.03;10.90;;;;;;;-3.19;66.61;100721.91;6134680;23;20286;-82
2022/12/18 11:13:40;;;;;;;22.67;10.80;;;;;;;-3.11;66.58;100715.16;6133347;23;20413;-82
2022/12/18 11:16:05;;;;;;;12.77;9.93;;;;;;;-3.05;66.67;100716.91;6133093;23;20190;-81
2022/12/18 11:18:35;;;;;;;30.13;14.23;;;;;;;-3.04;66.18;100719.50;6131441;23;20440;-81
2022/12/18 11:21:12;;;;;;;24.17;13.05;;;;;;;-3.02;66.30;100717.81;6131134;23;20208;-82
2022/12/18 11:23:49;;;;;;;23.00;10.10;;;;;;;-3.00;66.62;100721.25;6106905;23;20175;-82
2022/12/18 11:26:14;;;;;;;21.15;12.30;;;;;;;-2.97;66.70;100712.69;6134355;23;20315;-82